Time;durP1;ratioP1;P1;durP2;ratioP2;P2;SDS_P1;SDS_P2;PMS_P1;PMS_P2;Temp;Humidity;BMP_temperature;BMP_pressure;BME280_temperature;BME280_humidity;BME280_pressure;Samples;Min_cycle;Max_cycle;Signal;HPM_P1;HPM_P2
2024/01/03 03:06:21;;;;;;;2.80;0.70;;;;;;;;;;4925959;27;3664213;-68
2024/01/03 03:08:48;;;;;;;12.57;1.55;;;;;;;;;;5045435;28;20112;-69
2024/01/03 03:11:15;;;;;;;19.02;2.60;;;;;;;;;;5034631;28;20117;-68
2024/01/03 03:13:42;;;;;;;7.97;1.30;;;;;;;;;;5031198;28;20049;-68
2024/01/03 03:16:08;;;;;;;22.35;2.53;;;;;;;;;;5019735;28;20140;-68
2024/01/03 03:18:35;;;;;;;20.02;2.40;;;;;;;;;;5030334;28;20064;-69
2024/01/03 03:21:02;;;;;;;20.85;2.35;;;;;;;;;;5033100;28;20053;-69
2024/01/03 03:23:30;;;;;;;13.07;2.25;;;;;;;;;;5021137;28;20056;-69
2024/01/03 03:25:57;;;;;;;11.75;2.00;;;;;;;;;;5012095;28;20045;-68
2024/01/03 03:28:23;;;;;;;9.40;1.52;;;;;;;;;;5034222;28;20060;-69
2024/01/03 03:30:50;;;;;;;12.50;1.48;;;;;;;;;;5031178;28;20112;-68
2024/01/03 03:33:17;;;;;;;7.32;1.17;;;;;;;;;;5033096;28;20056;-68
2024/01/03 03:35:44;;;;;;;14.10;1.50;;;;;;;;;;5027906;28;20049;-69
2024/01/03 03:38:10;;;;;;;10.10;1.45;;;;;;;;;;5023728;28;20049;-70
2024/01/03 03:40:39;;;;;;;18.50;2.15;;;;;;;;;;5035952;28;20045;-69
2024/01/03 03:43:05;;;;;;;9.65;1.33;;;;;;;;;;5031174;28;20084;-69
2024/01/03 03:45:32;;;;;;;22.63;2.35;;;;;;;;;;5017082;28;20122;-69
2024/01/03 03:47:59;;;;;;;22.05;2.00;;;;;;;;;;5032193;28;20273;-69
2024/01/03 03:50:26;;;;;;;13.23;1.33;;;;;;;;;;5033471;28;20057;-69
2024/01/03 03:52:52;;;;;;;11.55;1.52;;;;;;;;;;5032188;28;20045;-69
2024/01/03 03:55:19;;;;;;;53.83;3.60;;;;;;;;;;5028562;28;20057;-69
2024/01/03 03:57:48;;;;;;;8.48;1.10;;;;;;;;;;5031545;28;20045;-69
2024/01/03 04:00:16;;;;;;;15.07;1.63;;;;;;;;;;5032543;28;20045;-70
2024/01/03 04:02:43;;;;;;;26.30;2.78;;;;;;;;;;5027056;28;20070;-69
2024/01/03 04:05:09;;;;;;;19.98;2.03;;;;;;;;;;5025703;28;20076;-69
2024/01/03 04:07:38;;;;;;;22.45;3.67;;;;;;;;;;5034115;28;20068;-69
2024/01/03 04:10:06;;;;;;;16.08;2.00;;;;;;;;;;5023983;28;20049;-69
2024/01/03 04:12:36;;;;;;;12.85;2.13;;;;;;;;;;5051191;28;20044;-69
2024/01/03 04:15:05;;;;;;;16.65;2.72;;;;;;;;;;5029847;28;20056;-68
2024/01/03 04:17:32;;;;;;;19.75;2.22;;;;;;;;;;5019195;28;20136;-68
2024/01/03 04:19:59;;;;;;;23.23;2.35;;;;;;;;;;5012226;28;20053;-69
2024/01/03 04:22:27;;;;;;;19.63;2.25;;;;;;;;;;5018449;28;20119;-68
2024/01/03 04:24:53;;;;;;;20.13;2.20;;;;;;;;;;5004052;28;20266;-68
2024/01/03 04:27:20;;;;;;;15.43;1.92;;;;;;;;;;4998626;28;20081;-69
2024/01/03 04:29:47;;;;;;;12.02;1.85;;;;;;;;;;4999064;28;20137;-68
2024/01/03 04:32:15;;;;;;;24.00;2.35;;;;;;;;;;4985073;28;20358;-69
2024/01/03 04:34:42;;;;;;;20.27;1.73;;;;;;;;;;4997739;28;20064;-67
2024/01/03 04:37:09;;;;;;;15.75;2.38;;;;;;;;;;5011883;28;20053;-68
2024/01/03 04:39:35;;;;;;;17.83;1.83;;;;;;;;;;5018191;28;20068;-68
2024/01/03 04:42:02;;;;;;;8.70;1.33;;;;;;;;;;5014136;28;20060;-68
2024/01/03 04:44:29;;;;;;;22.63;2.10;;;;;;;;;;4999663;28;20076;-68
2024/01/03 04:46:56;;;;;;;19.40;2.53;;;;;;;;;;5005332;28;20042;-68
2024/01/03 04:49:24;;;;;;;18.65;1.88;;;;;;;;;;5023010;28;20081;-68
2024/01/03 04:51:51;;;;;;;13.38;2.63;;;;;;;;;;5015651;28;20049;-68
2024/01/03 04:54:18;;;;;;;21.20;2.45;;;;;;;;;;5008004;28;20167;-69
2024/01/03 04:56:45;;;;;;;12.80;1.85;;;;;;;;;;5017448;28;20158;-69
2024/01/03 04:59:11;;;;;;;24.25;2.72;;;;;;;;;;5014607;28;20083;-69
2024/01/03 05:01:39;;;;;;;12.68;1.50;;;;;;;;;;5008735;28;20062;-68
2024/01/03 05:04:06;;;;;;;10.38;1.70;;;;;;;;;;5009255;28;20286;-68
2024/01/03 05:06:34;;;;;;;22.10;2.95;;;;;;;;;;4998394;28;20112;-69
2024/01/03 05:09:01;;;;;;;21.55;2.45;;;;;;;;;;4995967;28;20056;-70
2024/01/03 05:11:28;;;;;;;24.25;2.25;;;;;;;;;;4992142;28;20050;-68
2024/01/03 05:13:54;;;;;;;12.05;2.03;;;;;;;;;;4991272;28;20061;-68
2024/01/03 05:16:22;;;;;;;28.80;2.95;;;;;;;;;;5011761;28;20057;-68
2024/01/03 05:18:49;;;;;;;13.73;1.85;;;;;;;;;;5006771;28;20074;-68
2024/01/03 05:21:15;;;;;;;17.33;2.17;;;;;;;;;;5015089;28;20045;-69
2024/01/03 05:23:44;;;;;;;13.20;2.42;;;;;;;;;;5011677;28;20049;-68
2024/01/03 05:26:11;;;;;;;23.55;2.40;;;;;;;;;;4995727;28;20159;-68
2024/01/03 05:28:38;;;;;;;25.60;2.63;;;;;;;;;;5014676;28;20118;-68
2024/01/03 05:31:05;;;;;;;7.75;1.55;;;;;;;;;;5012969;28;20049;-69
2024/01/03 05:33:31;;;;;;;9.52;1.25;;;;;;;;;;5016471;28;21310;-67
2024/01/03 05:35:58;;;;;;;21.27;1.95;;;;;;;;;;4997496;28;20053;-69
2024/01/03 05:38:25;;;;;;;8.98;1.80;;;;;;;;;;5017268;28;20077;-69
2024/01/03 05:40:53;;;;;;;14.80;2.60;;;;;;;;;;5020270;28;20149;-68
2024/01/03 05:43:21;;;;;;;11.55;1.60;;;;;;;;;;5018026;28;20053;-68
2024/01/03 05:45:48;;;;;;;7.32;1.40;;;;;;;;;;5006924;28;20049;-68
2024/01/03 05:48:15;;;;;;;13.75;1.77;;;;;;;;;;5000458;28;20045;-68
2024/01/03 05:50:42;;;;;;;10.15;1.50;;;;;;;;;;5014448;28;20052;-68
2024/01/03 05:53:09;;;;;;;9.73;1.58;;;;;;;;;;5012493;28;20054;-68
2024/01/03 05:55:35;;;;;;;6.07;0.63;;;;;;;;;;4997093;28;20053;-68
2024/01/03 05:58:04;;;;;;;5.22;1.38;;;;;;;;;;5011158;28;20033;-69
2024/01/03 06:00:31;;;;;;;;;;;;;;;;;;5005049;28;20060;-68
2024/01/03 06:02:58;;;;;;;4.10;0.98;;;;;;;;;;5008841;28;19936;-69
2024/01/03 06:05:26;;;;;;;6.85;1.23;;;;;;;;;;5001046;28;20049;-69
2024/01/03 06:07:53;;;;;;;7.07;1.35;;;;;;;;;;5014316;28;20045;-70
2024/01/03 06:10:22;;;;;;;8.48;1.13;;;;;;;;;;5016898;28;20152;-68
2024/01/03 06:12:49;;;;;;;9.05;1.35;;;;;;;;;;5011670;28;20103;-69
2024/01/03 06:15:17;;;;;;;1.95;0.77;;;;;;;;;;5007663;28;20167;-68
2024/01/03 06:17:44;;;;;;;5.40;0.98;;;;;;;;;;5012409;28;20049;-68
2024/01/03 06:20:11;;;;;;;4.22;1.40;;;;;;;;;;5004281;28;20049;-68
2024/01/03 06:22:38;;;;;;;3.95;1.10;;;;;;;;;;5008202;28;20062;-68
2024/01/03 06:25:05;;;;;;;6.03;0.95;;;;;;;;;;5012989;28;20107;-68
2024/01/03 06:27:32;;;;;;;10.82;2.10;;;;;;;;;;5000248;28;20061;-68
2024/01/03 06:29:59;;;;;;;5.18;1.30;;;;;;;;;;5012240;28;20052;-69
2024/01/03 06:32:27;;;;;;;7.15;1.80;;;;;;;;;;5016703;28;20042;-68
2024/01/03 06:34:54;;;;;;;6.68;1.50;;;;;;;;;;5009699;28;20052;-68
2024/01/03 06:37:20;;;;;;;4.93;1.10;;;;;;;;;;5015722;28;20086;-68
2024/01/03 06:39:47;;;;;;;3.63;0.93;;;;;;;;;;5007937;28;20068;-68
2024/01/03 06:42:14;;;;;;;7.22;0.70;;;;;;;;;;5007276;28;20049;-68
2024/01/03 06:44:41;;;;;;;5.90;0.93;;;;;;;;;;5009849;28;20049;-67
2024/01/03 06:47:08;;;;;;;3.85;1.20;;;;;;;;;;5012178;28;20127;-68
2024/01/03 06:49:36;;;;;;;2.08;0.65;;;;;;;;;;5011273;28;20085;-68
2024/01/03 06:52:03;;;;;;;3.70;0.90;;;;;;;;;;5001181;28;20136;-69
2024/01/03 06:54:29;;;;;;;5.53;0.82;;;;;;;;;;5005070;28;20077;-68
2024/01/03 06:56:56;;;;;;;3.03;0.73;;;;;;;;;;5009826;28;20061;-68
2024/01/03 06:59:23;;;;;;;6.03;0.70;;;;;;;;;;5013954;28;20045;-68
2024/01/03 07:01:50;;;;;;;5.57;1.38;;;;;;;;;;5009220;28;20103;-68
2024/01/03 07:04:17;;;;;;;3.85;0.63;;;;;;;;;;4996045;28;20057;-68
2024/01/03 07:06:45;;;;;;;3.42;0.50;;;;;;;;;;4996723;28;20062;-68
2024/01/03 07:09:12;;;;;;;;;;;;;;;;;;4970236;28;20077;-68
2024/01/03 07:11:39;;;;;;;1.48;0.60;;;;;;;;;;4998336;28;19925;-68
2024/01/03 07:14:05;;;;;;;4.63;1.00;;;;;;;;;;4979138;28;20046;-69
2024/01/03 07:16:34;;;;;;;2.78;0.52;;;;;;;;;;5009748;28;20045;-68
2024/01/03 07:19:01;;;;;;;2.17;0.50;;;;;;;;;;4993162;28;20050;-68
2024/01/03 07:21:27;;;;;;;5.38;0.52;;;;;;;;;;4993418;28;20042;-68
2024/01/03 07:23:57;;;;;;;10.05;0.80;;;;;;;;;;5011164;28;20065;-70
2024/01/03 07:26:24;;;;;;;3.20;0.60;;;;;;;;;;4989361;28;20128;-68
2024/01/03 07:28:53;;;;;;;1.50;0.40;;;;;;;;;;4990618;28;20056;-68
2024/01/03 07:31:19;;;;;;;;;;;;;;;;;;4996086;28;20069;-68
2024/01/03 07:33:51;;;;;;;4.00;0.70;;;;;;;;;;5005054;28;19984;-67
2024/01/03 07:36:19;;;;;;;2.72;0.60;;;;;;;;;;4991336;28;20064;-67
2024/01/03 07:38:46;;;;;;;1.63;0.45;;;;;;;;;;4999618;28;20123;-67
2024/01/03 07:41:18;;;;;;;2.47;0.50;;;;;;;;;;4995345;28;20045;-69
2024/01/03 07:43:45;;;;;;;4.03;0.40;;;;;;;;;;4991089;28;20041;-69
2024/01/03 07:46:18;;;;;;;1.77;0.60;;;;;;;;;;4987891;28;20058;-70
2024/01/03 07:48:45;;;;;;;0.80;0.50;;;;;;;;;;4998533;28;20049;-70
2024/01/03 07:51:12;;;;;;;1.85;0.40;;;;;;;;;;4995559;28;20081;-69
2024/01/03 07:53:39;;;;;;;1.52;0.57;;;;;;;;;;4984053;28;20096;-70
2024/01/03 07:56:08;;;;;;;2.17;0.60;;;;;;;;;;5005633;28;20053;-69
2024/01/03 07:58:37;;;;;;;3.22;0.60;;;;;;;;;;5019658;28;20055;-70
2024/01/03 08:01:04;;;;;;;4.93;0.80;;;;;;;;;;5020122;28;20184;-69
2024/01/03 08:03:31;;;;;;;0.98;0.45;;;;;;;;;;5019843;28;20045;-70
2024/01/03 08:06:00;;;;;;;5.22;1.42;;;;;;;;;;4996263;28;20041;-70
2024/01/03 08:08:26;;;;;;;0.63;0.30;;;;;;;;;;5023040;28;20068;-69
2024/01/03 08:10:53;;;;;;;0.77;0.40;;;;;;;;;;5017942;28;20065;-69
2024/01/03 08:13:20;;;;;;;1.90;0.52;;;;;;;;;;5012699;28;20046;-70
2024/01/03 08:15:50;;;;;;;2.45;0.60;;;;;;;;;;4985770;28;20045;-68
2024/01/03 08:18:17;;;;;;;6.13;0.50;;;;;;;;;;5022211;28;20129;-69
2024/01/03 08:20:43;;;;;;;0.90;0.38;;;;;;;;;;5018543;28;20079;-70
2024/01/03 08:23:11;;;;;;;4.22;0.80;;;;;;;;;;5006495;28;20101;-69
2024/01/03 08:25:38;;;;;;;2.90;0.68;;;;;;;;;;4992393;28;20073;-69
2024/01/03 08:28:06;;;;;;;4.13;0.95;;;;;;;;;;4980932;28;20049;-70
2024/01/03 08:30:33;;;;;;;9.63;1.13;;;;;;;;;;4989620;28;20073;-70
2024/01/03 08:33:03;;;;;;;2.13;0.65;;;;;;;;;;4993257;28;20049;-70
2024/01/03 08:35:30;;;;;;;12.25;1.35;;;;;;;;;;5000626;28;20058;-69
2024/01/03 08:37:57;;;;;;;3.80;0.82;;;;;;;;;;5016824;28;20248;-70
2024/01/03 08:40:25;;;;;;;5.80;0.77;;;;;;;;;;5021034;28;20136;-70
2024/01/03 08:42:53;;;;;;;3.97;0.88;;;;;;;;;;5018910;28;20218;-69
2024/01/03 08:45:20;;;;;;;7.35;1.20;;;;;;;;;;4994811;28;20045;-69
2024/01/03 08:47:47;;;;;;;5.38;0.98;;;;;;;;;;5011114;28;20318;-70
2024/01/03 08:50:16;;;;;;;2.75;0.88;;;;;;;;;;5015205;28;20068;-69
2024/01/03 08:52:45;;;;;;;7.85;1.05;;;;;;;;;;5018593;28;20097;-70
2024/01/03 08:55:12;;;;;;;3.90;1.00;;;;;;;;;;5015173;28;20053;-70
2024/01/03 08:57:39;;;;;;;2.92;0.70;;;;;;;;;;5017854;28;20057;-67
2024/01/03 09:00:10;;;;;;;10.75;1.38;;;;;;;;;;5014391;28;20054;-68
2024/01/03 09:02:37;;;;;;;1.67;0.73;;;;;;;;;;5007649;28;20045;-68
2024/01/03 09:05:05;;;;;;;4.13;0.95;;;;;;;;;;5012418;28;20062;-68
2024/01/03 09:07:33;;;;;;;3.63;1.05;;;;;;;;;;5018942;28;20061;-68
2024/01/03 09:10:00;;;;;;;5.00;1.27;;;;;;;;;;5013792;28;20055;-69
2024/01/03 09:12:26;;;;;;;5.28;0.80;;;;;;;;;;5013693;28;20056;-68
2024/01/03 09:14:53;;;;;;;1.80;0.52;;;;;;;;;;5011665;28;20140;-67
2024/01/03 09:17:21;;;;;;;3.63;0.70;;;;;;;;;;5017960;28;20057;-68
2024/01/03 09:19:48;;;;;;;3.42;0.98;;;;;;;;;;5012387;28;20053;-68
2024/01/03 09:22:22;;;;;;;7.45;0.93;;;;;;;;;;5007574;28;20066;-68
2024/01/03 09:24:51;;;;;;;6.57;1.00;;;;;;;;;;5014014;28;20050;-68
2024/01/03 09:27:18;;;;;;;6.10;0.90;;;;;;;;;;5017830;28;20110;-67
2024/01/03 09:29:45;;;;;;;2.97;1.05;;;;;;;;;;5019375;28;20163;-67
2024/01/03 09:32:12;;;;;;;7.35;1.02;;;;;;;;;;5016891;28;20045;-67
2024/01/03 09:34:40;;;;;;;9.27;1.02;;;;;;;;;;5003149;28;20057;-67
2024/01/03 09:37:07;;;;;;;11.35;1.15;;;;;;;;;;5016892;28;20060;-68
2024/01/03 09:39:34;;;;;;;7.97;1.48;;;;;;;;;;5017370;28;20193;-67
2024/01/03 09:42:04;;;;;;;2.47;0.73;;;;;;;;;;5012596;28;20137;-67
2024/01/03 09:44:36;;;;;;;5.53;0.90;;;;;;;;;;5004692;28;20059;-67
2024/01/03 09:47:04;;;;;;;9.70;1.15;;;;;;;;;;5017211;28;20041;-68
2024/01/03 09:49:35;;;;;;;4.15;1.00;;;;;;;;;;5016957;28;20097;-67
2024/01/03 09:52:03;;;;;;;6.13;1.27;;;;;;;;;;5013530;28;20056;-68
2024/01/03 09:54:31;;;;;;;3.47;0.70;;;;;;;;;;5009995;28;20077;-67
2024/01/03 09:56:58;;;;;;;3.35;1.00;;;;;;;;;;5017923;28;20193;-66
2024/01/03 09:59:26;;;;;;;13.40;1.35;;;;;;;;;;5014139;28;20077;-67
2024/01/03 10:01:58;;;;;;;4.93;1.30;;;;;;;;;;5015053;28;20076;-68
2024/01/03 10:04:25;;;;;;;8.27;1.27;;;;;;;;;;5000849;28;20155;-67
2024/01/03 10:06:53;;;;;;;15.40;1.65;;;;;;;;;;5011951;28;20107;-68
2024/01/03 10:09:20;;;;;;;13.10;1.52;;;;;;;;;;5015967;28;20124;-67
2024/01/03 10:11:51;;;;;;;7.78;1.40;;;;;;;;;;5014223;28;20037;-68
2024/01/03 10:14:19;;;;;;;12.10;1.50;;;;;;;;;;5013707;28;20191;-69
2024/01/03 10:16:50;;;;;;;9.73;1.02;;;;;;;;;;5017419;28;20076;-67
2024/01/03 10:19:18;;;;;;;10.77;1.17;;;;;;;;;;5019248;28;20060;-67
2024/01/03 10:21:51;;;;;;;16.08;1.60;;;;;;;;;;5015795;28;20045;-67
2024/01/03 10:24:18;;;;;;;8.95;1.42;;;;;;;;;;4994200;28;20180;-68
2024/01/03 10:26:46;;;;;;;10.45;1.38;;;;;;;;;;4991842;28;20136;-68
2024/01/03 10:29:14;;;;;;;10.38;1.77;;;;;;;;;;5014654;28;20085;-68
2024/01/03 10:31:41;;;;;;;9.48;1.52;;;;;;;;;;4995900;28;20077;-68
2024/01/03 10:34:15;;;;;;;15.53;2.30;;;;;;;;;;4989631;28;20058;-68
2024/01/03 10:36:43;;;;;;;13.93;1.25;;;;;;;;;;4992567;28;20064;-67
2024/01/03 10:39:14;;;;;;;9.07;1.50;;;;;;;;;;4997019;28;20060;-68
2024/01/03 10:41:44;;;;;;;7.68;1.50;;;;;;;;;;4991517;28;20077;-66
2024/01/03 10:44:13;;;;;;;11.95;1.73;;;;;;;;;;4984383;28;20168;-68
2024/01/03 10:46:41;;;;;;;14.52;1.83;;;;;;;;;;5008654;28;20049;-67
2024/01/03 10:49:09;;;;;;;12.57;1.70;;;;;;;;;;5002228;28;20064;-68
2024/01/03 10:51:40;;;;;;;13.27;1.55;;;;;;;;;;5018349;28;20327;-67
2024/01/03 10:54:09;;;;;;;21.80;2.38;;;;;;;;;;5012046;28;20053;-69
2024/01/03 10:56:36;;;;;;;13.18;1.83;;;;;;;;;;5001527;28;20053;-68
2024/01/03 10:59:04;;;;;;;8.32;1.70;;;;;;;;;;5014379;28;20049;-68
2024/01/03 11:01:40;;;;;;;13.93;1.85;;;;;;;;;;5008810;28;20244;-67
2024/01/03 11:04:16;;;;;;;7.10;1.58;;;;;;;;;;5013511;28;20080;-68
2024/01/03 11:06:53;;;;;;;13.90;2.05;;;;;;;;;;5013956;28;20111;-68
2024/01/03 11:09:21;;;;;;;15.55;2.10;;;;;;;;;;5016098;28;20041;-67
2024/01/03 11:11:50;;;;;;;9.10;1.63;;;;;;;;;;5017922;28;20049;-68
2024/01/03 11:14:23;;;;;;;5.57;1.45;;;;;;;;;;5010644;28;20057;-68
2024/01/03 11:16:50;;;;;;;16.80;2.15;;;;;;;;;;5019334;28;20052;-68
2024/01/03 11:19:27;;;;;;;17.33;2.75;;;;;;;;;;5017592;28;20050;-67
2024/01/03 11:21:59;;;;;;;16.63;2.60;;;;;;;;;;5024025;28;20060;-68
2024/01/03 11:24:43;;;;;;;10.95;2.05;;;;;;;;;;5018974;28;20049;-68
2024/01/03 11:27:19;;;;;;;13.20;1.90;;;;;;;;;;4998921;28;21416;-68
2024/01/03 11:29:48;;;;;;;18.40;2.17;;;;;;;;;;4995147;28;20042;-68
2024/01/03 11:32:16;;;;;;;15.98;2.10;;;;;;;;;;4985558;28;20046;-68
2024/01/03 11:34:46;;;;;;;12.10;1.50;;;;;;;;;;4969249;28;20048;-69
2024/01/03 11:37:34;;;;;;;12.43;1.80;;;;;;;;;;5012989;28;20053;-68
2024/01/03 11:40:01;;;;;;;19.27;1.80;;;;;;;;;;4999300;28;20049;-68
2024/01/03 11:42:30;;;;;;;20.67;2.40;;;;;;;;;;4994357;28;20088;-68
2024/01/03 11:45:05;;;;;;;17.83;2.22;;;;;;;;;;4988165;28;20082;-68
2024/01/03 11:47:33;;;;;;;13.10;1.95;;;;;;;;;;5005306;28;20042;-68
2024/01/03 11:50:04;;;;;;;14.75;2.08;;;;;;;;;;4991986;28;20057;-68
2024/01/03 11:52:35;;;;;;;14.60;2.15;;;;;;;;;;5000038;28;20053;-68
2024/01/03 11:55:10;;;;;;;16.95;1.90;;;;;;;;;;4990765;28;20136;-69
2024/01/03 11:57:42;;;;;;;14.30;2.40;;;;;;;;;;4994994;28;20143;-68
2024/01/03 12:00:12;;;;;;;15.05;2.10;;;;;;;;;;4995504;28;20066;-67
2024/01/03 12:02:49;;;;;;;16.25;2.50;;;;;;;;;;4998828;28;20049;-69
2024/01/03 12:05:21;;;;;;;14.80;2.13;;;;;;;;;;4993925;28;20054;-68
2024/01/03 12:07:48;;;;;;;12.02;1.88;;;;;;;;;;5000688;28;20054;-68
2024/01/03 12:10:19;;;;;;;9.73;1.65;;;;;;;;;;4997391;28;20042;-68
2024/01/03 12:12:46;;;;;;;18.85;2.72;;;;;;;;;;5004170;28;20046;-69
2024/01/03 12:15:21;;;;;;;11.32;2.97;;;;;;;;;;4997239;28;20050;-68
2024/01/03 12:17:49;;;;;;;10.27;1.73;;;;;;;;;;5001321;28;20058;-68
2024/01/03 12:20:20;;;;;;;12.32;1.80;;;;;;;;;;4997123;28;20060;-68
2024/01/03 12:22:47;;;;;;;17.95;2.38;;;;;;;;;;5001858;28;20069;-68
2024/01/03 12:25:19;;;;;;;9.40;1.73;;;;;;;;;;5005026;28;20060;-68
2024/01/03 12:27:48;;;;;;;13.25;1.70;;;;;;;;;;5016450;28;20080;-68
2024/01/03 12:30:17;;;;;;;11.55;1.90;;;;;;;;;;5013644;28;20053;-68
2024/01/03 12:32:45;;;;;;;17.25;4.15;;;;;;;;;;5018104;28;20045;-68
2024/01/03 12:35:12;;;;;;;11.80;2.25;;;;;;;;;;4993679;28;20104;-68
2024/01/03 12:37:46;;;;;;;11.55;2.17;;;;;;;;;;5016800;28;20069;-68
2024/01/03 12:40:16;;;;;;;11.93;1.23;;;;;;;;;;5003443;28;20065;-68
2024/01/03 12:42:44;;;;;;;6.15;1.40;;;;;;;;;;5019565;28;20291;-69
2024/01/03 12:45:12;;;;;;;12.10;1.30;;;;;;;;;;5007529;28;20081;-68
2024/01/03 12:47:40;;;;;;;13.68;1.50;;;;;;;;;;5000187;28;20304;-68
2024/01/03 12:50:08;;;;;;;7.70;1.60;;;;;;;;;;4994594;28;20129;-68
2024/01/03 12:52:36;;;;;;;7.55;1.60;;;;;;;;;;4999133;28;20141;-69
2024/01/03 12:55:08;;;;;;;9.93;1.48;;;;;;;;;;4990751;28;20069;-69
2024/01/03 12:57:35;;;;;;;4.32;1.13;;;;;;;;;;4999273;28;20065;-68
2024/01/03 13:00:09;;;;;;;8.95;1.42;;;;;;;;;;4993781;28;20057;-68
2024/01/03 13:02:37;;;;;;;8.95;1.13;;;;;;;;;;4998110;28;20038;-69
2024/01/03 13:05:04;;;;;;;7.10;1.25;;;;;;;;;;4995279;28;20062;-68
2024/01/03 13:07:31;;;;;;;7.63;0.73;;;;;;;;;;4997482;28;20046;-68
2024/01/03 13:09:58;;;;;;;11.93;1.50;;;;;;;;;;4994578;28;20129;-68
2024/01/03 13:12:26;;;;;;;11.27;1.67;;;;;;;;;;5000754;28;20135;-68
2024/01/03 13:14:53;;;;;;;4.05;1.23;;;;;;;;;;4995504;28;20058;-68
2024/01/03 13:17:21;;;;;;;17.63;3.45;;;;;;;;;;5005886;28;20089;-68
2024/01/03 13:19:50;;;;;;;5.38;1.20;;;;;;;;;;4995984;28;20053;-69
2024/01/03 13:22:17;;;;;;;7.03;1.13;;;;;;;;;;4993377;28;20192;-68
2024/01/03 13:24:44;;;;;;;7.13;1.48;;;;;;;;;;4988922;28;20066;-68
2024/01/03 13:27:11;;;;;;;9.27;1.05;;;;;;;;;;5014741;28;20089;-68
2024/01/03 13:29:39;;;;;;;6.03;0.93;;;;;;;;;;4994751;28;20057;-69
2024/01/03 13:32:07;;;;;;;10.88;1.08;;;;;;;;;;4986924;28;20053;-68
2024/01/03 13:34:36;;;;;;;8.60;0.88;;;;;;;;;;4998576;28;20042;-68
2024/01/03 13:37:03;;;;;;;9.25;1.50;;;;;;;;;;5004958;28;20072;-68
2024/01/03 13:39:30;;;;;;;14.23;1.83;;;;;;;;;;5017667;28;20045;-68
2024/01/03 13:41:57;;;;;;;6.60;1.05;;;;;;;;;;5013831;28;20045;-68
2024/01/03 13:44:24;;;;;;;5.78;1.00;;;;;;;;;;5020563;28;20064;-68
2024/01/03 13:46:53;;;;;;;5.00;0.90;;;;;;;;;;5011297;28;20057;-69
2024/01/03 13:49:23;;;;;;;7.88;1.08;;;;;;;;;;5018519;28;20067;-68
2024/01/03 13:51:51;;;;;;;3.28;0.80;;;;;;;;;;5018140;28;20157;-68
2024/01/03 13:54:20;;;;;;;6.22;1.10;;;;;;;;;;5007831;28;20078;-68
2024/01/03 13:56:47;;;;;;;10.82;1.17;;;;;;;;;;5001726;28;20160;-68
2024/01/03 13:59:14;;;;;;;13.80;1.23;;;;;;;;;;5019328;28;20045;-69
2024/01/03 14:01:50;;;;;;;8.93;1.45;;;;;;;;;;5019096;28;20053;-68
2024/01/03 14:04:22;;;;;;;5.47;1.10;;;;;;;;;;5013972;28;20062;-68
2024/01/03 14:06:51;;;;;;;7.40;1.20;;;;;;;;;;4985366;28;20077;-68
2024/01/03 14:09:20;;;;;;;12.35;1.20;;;;;;;;;;5012512;28;20045;-68
2024/01/03 14:11:50;;;;;;;6.78;1.10;;;;;;;;;;5015063;28;20061;-67
2024/01/03 14:14:17;;;;;;;7.15;1.25;;;;;;;;;;5014912;28;20080;-68
2024/01/03 14:16:46;;;;;;;10.15;1.30;;;;;;;;;;5005225;28;20057;-66
2024/01/03 14:19:18;;;;;;;6.43;1.45;;;;;;;;;;5020636;28;20034;-67
2024/01/03 14:21:51;;;;;;;6.82;1.45;;;;;;;;;;5018197;28;20076;-67
2024/01/03 14:24:18;;;;;;;9.77;1.48;;;;;;;;;;5016803;28;20950;-68
2024/01/03 14:26:46;;;;;;;5.25;0.95;;;;;;;;;;5021642;28;20053;-67
2024/01/03 14:29:15;;;;;;;10.63;1.38;;;;;;;;;;5016936;28;20050;-68
2024/01/03 14:31:45;;;;;;;5.68;0.90;;;;;;;;;;5008767;28;20049;-67
2024/01/03 14:34:12;;;;;;;7.30;1.35;;;;;;;;;;5009262;28;20128;-68
2024/01/03 14:36:41;;;;;;;4.32;0.65;;;;;;;;;;5011630;28;20122;-68
2024/01/03 14:39:12;;;;;;;3.75;0.50;;;;;;;;;;5016191;28;20152;-68
2024/01/03 14:41:39;;;;;;;4.38;0.75;;;;;;;;;;5030799;28;20053;-68
2024/01/03 14:44:09;;;;;;;6.50;0.70;;;;;;;;;;5014278;28;20053;-68
2024/01/03 14:46:37;;;;;;;0.88;0.50;;;;;;;;;;5011842;28;20143;-68
2024/01/03 14:49:04;;;;;;;3.95;0.90;;;;;;;;;;5020416;28;20115;-68
2024/01/03 14:51:43;;;;;;;3.78;0.63;;;;;;;;;;5019416;28;20053;-68
2024/01/03 14:54:13;;;;;;;2.47;0.52;;;;;;;;;;4998992;28;20050;-68
2024/01/03 14:56:40;;;;;;;3.00;0.90;;;;;;;;;;4987858;28;20072;-68
2024/01/03 14:59:10;;;;;;;1.75;0.52;;;;;;;;;;5012808;28;20049;-68
2024/01/03 15:01:38;;;;;;;2.55;0.90;;;;;;;;;;5008384;28;20050;-68
2024/01/03 15:04:07;;;;;;;1.67;0.70;;;;;;;;;;5007802;28;20049;-68
2024/01/03 15:06:34;;;;;;;4.03;0.80;;;;;;;;;;5008943;28;20057;-68
2024/01/03 15:09:01;;;;;;;7.05;1.63;;;;;;;;;;5004510;28;20160;-67
2024/01/03 15:11:30;;;;;;;10.32;1.38;;;;;;;;;;5019329;28;20045;-67
2024/01/03 15:13:59;;;;;;;4.68;1.75;;;;;;;;;;5011954;28;20129;-68
2024/01/03 15:16:26;;;;;;;3.80;1.05;;;;;;;;;;4995344;28;20127;-68
2024/01/03 15:18:55;;;;;;;3.80;1.08;;;;;;;;;;5022787;28;20072;-68
2024/01/03 15:21:22;;;;;;;;;;;;;;;;;;5016881;28;20141;-67
2024/01/03 15:23:56;;;;;;;1.55;0.50;;;;;;;;;;5016656;28;19925;-68
2024/01/03 15:26:23;;;;;;;2.05;0.60;;;;;;;;;;4975705;28;20056;-69
2024/01/03 15:28:51;;;;;;;3.05;0.50;;;;;;;;;;4978655;28;20047;-68
2024/01/03 15:31:21;;;;;;;0.93;0.40;;;;;;;;;;4998814;28;20058;-67
2024/01/03 15:33:48;;;;;;;5.05;0.60;;;;;;;;;;4995282;28;20050;-67
2024/01/03 15:36:15;;;;;;;3.17;0.57;;;;;;;;;;4988060;28;20069;-68
2024/01/03 15:38:41;;;;;;;3.45;1.00;;;;;;;;;;4996445;28;20134;-67
2024/01/03 15:41:08;;;;;;;5.88;1.13;;;;;;;;;;5001329;28;20058;-67
2024/01/03 15:43:35;;;;;;;6.20;1.40;;;;;;;;;;4999470;28;20141;-68
2024/01/03 15:46:06;;;;;;;2.42;0.73;;;;;;;;;;4989761;28;20065;-68
2024/01/03 15:48:33;;;;;;;4.72;1.25;;;;;;;;;;4995406;28;20081;-68
2024/01/03 15:51:00;;;;;;;2.90;0.70;;;;;;;;;;4992312;28;20061;-68
2024/01/03 15:53:26;;;;;;;3.17;0.68;;;;;;;;;;4996260;28;20148;-68
2024/01/03 15:55:55;;;;;;;4.38;0.75;;;;;;;;;;5006848;28;20056;-67
2024/01/03 15:58:22;;;;;;;5.10;0.65;;;;;;;;;;4998193;28;20206;-69
2024/01/03 16:00:49;;;;;;;4.68;0.75;;;;;;;;;;4996997;28;20054;-68
2024/01/03 16:03:17;;;;;;;5.30;0.80;;;;;;;;;;4998345;28;20128;-67
2024/01/03 16:05:44;;;;;;;4.18;0.80;;;;;;;;;;4991300;28;20058;-68
2024/01/03 16:08:11;;;;;;;11.70;3.78;;;;;;;;;;5011197;28;20115;-68
2024/01/03 16:10:38;;;;;;;6.93;1.73;;;;;;;;;;5013826;28;20056;-68
2024/01/03 16:13:04;;;;;;;10.43;1.80;;;;;;;;;;5017280;28;20057;-68
2024/01/03 16:15:31;;;;;;;10.07;2.03;;;;;;;;;;5011975;28;20151;-68
2024/01/03 16:18:01;;;;;;;6.50;1.75;;;;;;;;;;5016261;28;20057;-68
2024/01/03 16:20:30;;;;;;;7.40;1.27;;;;;;;;;;5014354;28;20060;-68
2024/01/03 16:22:57;;;;;;;9.07;1.45;;;;;;;;;;5016133;28;20058;-68
2024/01/03 16:25:23;;;;;;;5.50;0.88;;;;;;;;;;5017820;28;20073;-68
2024/01/03 16:27:50;;;;;;;8.43;1.15;;;;;;;;;;5014026;28;20141;-69
2024/01/03 16:30:19;;;;;;;13.65;3.58;;;;;;;;;;5013731;28;20223;-68
2024/01/03 16:32:45;;;;;;;14.20;1.88;;;;;;;;;;5018938;28;20145;-68
2024/01/03 16:35:14;;;;;;;6.22;1.30;;;;;;;;;;5017284;28;20131;-68
2024/01/03 16:37:45;;;;;;;9.23;1.20;;;;;;;;;;5015377;28;20061;-68
2024/01/03 16:40:12;;;;;;;3.28;0.93;;;;;;;;;;5009214;28;20046;-68
2024/01/03 16:42:39;;;;;;;6.05;1.20;;;;;;;;;;5018204;28;20056;-68
2024/01/03 16:45:08;;;;;;;8.82;1.27;;;;;;;;;;4998790;28;20077;-68
2024/01/03 16:47:37;;;;;;;7.93;1.30;;;;;;;;;;5015865;28;20197;-68
2024/01/03 16:50:05;;;;;;;;;;;;;;;;;;5013814;28;20059;-68
2024/01/03 16:52:32;;;;;;;5.97;1.05;;;;;;;;;;5020390;28;19982;-68
2024/01/03 16:55:04;;;;;;;2.90;0.93;;;;;;;;;;5011948;28;20073;-68
2024/01/03 16:57:31;;;;;;;3.58;0.73;;;;;;;;;;5013533;28;20055;-68
2024/01/03 17:00:01;;;;;;;1.48;0.70;;;;;;;;;;5009330;28;20148;-68
2024/01/03 17:02:28;;;;;;;5.57;1.10;;;;;;;;;;5015401;28;20052;-68
2024/01/03 17:04:55;;;;;;;4.25;0.73;;;;;;;;;;5009812;28;20061;-71
2024/01/03 17:07:22;;;;;;;4.43;0.82;;;;;;;;;;5016808;28;20060;-68
2024/01/03 17:09:49;;;;;;;7.97;1.30;;;;;;;;;;5013340;28;20058;-68
2024/01/03 17:12:17;;;;;;;7.38;1.48;;;;;;;;;;5004800;28;20221;-68
2024/01/03 17:14:46;;;;;;;8.07;1.23;;;;;;;;;;5012750;28;20056;-69
2024/01/03 17:17:13;;;;;;;5.43;0.95;;;;;;;;;;5000009;28;20073;-68
2024/01/03 17:19:43;;;;;;;6.55;0.73;;;;;;;;;;5015048;28;20069;-69
2024/01/03 17:22:10;;;;;;;1.25;0.70;;;;;;;;;;4994563;28;20058;-68
2024/01/03 17:24:37;;;;;;;4.18;1.27;;;;;;;;;;4996837;28;20061;-69
2024/01/03 17:27:06;;;;;;;4.38;1.05;;;;;;;;;;5004535;28;20061;-68
2024/01/03 17:29:34;;;;;;;7.68;1.30;;;;;;;;;;5024166;28;20042;-68
2024/01/03 17:32:01;;;;;;;4.70;1.15;;;;;;;;;;5013793;28;20053;-68
2024/01/03 17:34:28;;;;;;;7.95;1.40;;;;;;;;;;5018816;28;20049;-68
2024/01/03 17:36:55;;;;;;;7.07;1.00;;;;;;;;;;5001731;28;20077;-68
2024/01/03 17:39:22;;;;;;;6.18;1.17;;;;;;;;;;5013871;28;20133;-69
2024/01/03 17:41:52;;;;;;;5.43;0.88;;;;;;;;;;5014501;28;20168;-67
2024/01/03 17:44:19;;;;;;;4.72;1.25;;;;;;;;;;5024703;28;22330;-68
2024/01/03 17:46:47;;;;;;;6.72;1.10;;;;;;;;;;4989475;28;20059;-68
2024/01/03 17:49:20;;;;;;;11.82;1.58;;;;;;;;;;5013407;28;20045;-68
2024/01/03 17:51:49;;;;;;;3.75;0.82;;;;;;;;;;5002788;28;20057;-69